Time;durP1;ratioP1;P1;durP2;ratioP2;P2;SDS_P1;SDS_P2;PMS_P1;PMS_P2;Temp;Humidity;BMP_temperature;BMP_pressure;BME280_temperature;BME280_humidity;BME280_pressure;Samples;Min_cycle;Max_cycle;Signal;HPM_P1;HPM_P2
2022/12/20 00:00:12;;;;;;;6.78;3.80;;;9.40;99.90;;;;;;5078129;28;20055;-63
2022/12/20 00:02:37;;;;;;;7.82;3.95;;;9.50;99.90;;;;;;5093210;28;20032;-61
2022/12/20 00:05:03;;;;;;;6.43;3.58;;;9.50;99.90;;;;;;5074641;28;20032;-61
2022/12/20 00:07:29;;;;;;;6.15;3.53;;;9.50;99.90;;;;;;5055594;28;20043;-62
2022/12/20 00:09:54;;;;;;;7.10;3.67;;;9.60;99.90;;;;;;5059851;28;20076;-65
2022/12/20 00:12:20;;;;;;;5.95;3.88;;;9.50;99.90;;;;;;5055615;28;20346;-61
2022/12/20 00:14:46;;;;;;;6.03;4.18;;;9.50;99.90;;;;;;5090503;28;20079;-61
2022/12/20 00:17:11;;;;;;;7.25;4.40;;;9.60;99.90;;;;;;5081179;28;20032;-61
2022/12/20 00:19:37;;;;;;;7.43;4.13;;;9.60;99.90;;;;;;5054309;28;20110;-61
2022/12/20 00:22:02;;;;;;;6.95;4.10;;;9.60;99.90;;;;;;5066621;28;20087;-63
2022/12/20 00:24:28;;;;;;;6.15;3.97;;;9.60;99.90;;;;;;5061691;28;20032;-61
2022/12/20 00:26:54;;;;;;;6.55;3.85;;;9.50;99.90;;;;;;5081947;28;20052;-60
2022/12/20 00:29:19;;;;;;;6.93;4.13;;;9.50;99.90;;;;;;5054590;28;20048;-61
2022/12/20 00:31:45;;;;;;;6.85;3.75;;;9.50;99.90;;;;;;5055212;28;20087;-63
2022/12/20 00:34:11;;;;;;;7.53;4.20;;;9.50;99.90;;;;;;5073410;28;20041;-61
2022/12/20 00:36:39;;;;;;;7.25;3.85;;;9.50;99.90;;;;;;5073137;28;20044;-61
2022/12/20 00:39:04;;;;;;;7.38;3.78;;;9.50;99.90;;;;;;5054005;28;20060;-60
2022/12/20 00:41:32;;;;;;;6.10;3.50;;;9.50;99.90;;;;;;5072939;28;20106;-61
2022/12/20 00:43:57;;;;;;;5.78;3.75;;;9.50;99.90;;;;;;5072588;28;20479;-62
2022/12/20 00:46:24;;;;;;;6.32;3.80;;;9.50;99.90;;;;;;5073200;28;20037;-63
2022/12/20 00:48:50;;;;;;;7.13;3.30;;;9.50;99.90;;;;;;5054484;28;20457;-65
2022/12/20 00:51:19;;;;;;;4.60;3.30;;;9.40;99.90;;;;;;5072897;28;20049;-61
2022/12/20 00:53:45;;;;;;;7.18;3.80;;;9.40;99.90;;;;;;5072941;28;20113;-61
2022/12/20 00:56:11;;;;;;;6.95;3.75;;;9.40;99.90;;;;;;5072862;28;20037;-61
2022/12/20 00:58:39;;;;;;;6.85;3.85;;;9.30;99.90;;;;;;5054608;28;20032;-61
2022/12/20 01:01:12;;;;;;;6.75;3.80;;;9.40;99.90;;;;;;5072305;28;20045;-60
2022/12/20 01:03:38;;;;;;;7.28;4.10;;;9.40;99.90;;;;;;5054887;28;20036;-62
2022/12/20 01:06:04;;;;;;;5.15;3.40;;;9.30;99.90;;;;;;5072877;28;20123;-64
2022/12/20 01:08:30;;;;;;;8.52;3.95;;;9.40;99.90;;;;;;5072461;28;20058;-60
2022/12/20 01:11:07;;;;;;;5.80;3.65;;;9.30;99.90;;;;;;5055311;28;20052;-60
2022/12/20 01:13:34;;;;;;;5.07;3.50;;;9.30;99.90;;;;;;5059518;28;20089;-62
2022/12/20 01:16:11;;;;;;;6.68;3.58;;;9.30;99.90;;;;;;5076964;28;20059;-62
2022/12/20 01:18:37;;;;;;;8.02;3.70;;;9.30;99.90;;;;;;5076674;28;20041;-61
2022/12/20 01:21:06;;;;;;;6.65;3.72;;;9.30;99.90;;;;;;5042162;28;20041;-61
2022/12/20 01:23:31;;;;;;;5.85;3.80;;;9.20;99.90;;;;;;5059084;28;20040;-63
2022/12/20 01:26:03;;;;;;;5.75;3.40;;;9.30;99.90;;;;;;5058828;28;20033;-63
2022/12/20 01:28:30;;;;;;;6.13;3.70;;;9.30;99.90;;;;;;5058262;28;20127;-64
2022/12/20 01:30:56;;;;;;;6.53;3.78;;;9.30;99.90;;;;;;5076091;28;20044;-64
2022/12/20 01:33:22;;;;;;;8.23;3.60;;;9.20;99.90;;;;;;5076480;28;20045;-61
2022/12/20 01:35:58;;;;;;;5.88;3.22;;;9.30;99.90;;;;;;5071532;28;20041;-61
2022/12/20 01:38:24;;;;;;;5.65;3.53;;;9.30;99.90;;;;;;5058476;28;20422;-65
2022/12/20 01:40:51;;;;;;;6.75;3.50;;;9.30;99.90;;;;;;5058135;28;20076;-61
2022/12/20 01:43:18;;;;;;;7.18;3.72;;;9.20;99.90;;;;;;5058299;28;20036;-62
2022/12/20 01:45:45;;;;;;;5.88;3.50;;;9.30;99.90;;;;;;5058198;28;20385;-63
2022/12/20 01:48:20;;;;;;;5.55;3.30;;;9.30;99.90;;;;;;5075956;28;20098;-64
2022/12/20 01:50:47;;;;;;;4.93;3.35;;;9.40;99.90;;;;;;5057908;28;20040;-63
2022/12/20 01:53:15;;;;;;;5.78;3.38;;;9.40;99.90;;;;;;5058685;28;20103;-60
2022/12/20 01:55:41;;;;;;;7.22;3.53;;;9.50;99.90;;;;;;5076151;28;20048;-61
2022/12/20 01:58:11;;;;;;;5.40;3.40;;;9.50;99.90;;;;;;5076273;28;20044;-62
2022/12/20 02:00:37;;;;;;;4.88;3.05;;;9.50;99.90;;;;;;5075665;28;20157;-62
2022/12/20 02:03:06;;;;;;;5.25;3.10;;;9.50;99.90;;;;;;5075824;28;20441;-61
2022/12/20 02:05:43;;;;;;;4.55;3.05;;;9.60;99.90;;;;;;5057956;28;20032;-63
2022/12/20 02:08:10;;;;;;;5.22;3.35;;;9.60;99.90;;;;;;5076049;28;20036;-60
2022/12/20 02:10:49;;;;;;;5.00;2.90;;;9.60;99.90;;;;;;5075203;28;20526;-61
2022/12/20 02:13:46;;;;;;;7.80;3.45;;;9.60;99.90;;;;;;5075647;28;20155;-65
2022/12/20 02:16:16;;;;;;;5.30;3.20;;;9.60;99.90;;;;;;5058042;28;20055;-62
2022/12/20 02:18:46;;;;;;;6.07;3.08;;;9.70;99.90;;;;;;5057094;28;20421;-67
2022/12/20 02:21:23;;;;;;;5.68;3.10;;;9.80;99.90;;;;;;5057804;28;20458;-61
2022/12/20 02:24:24;;;;;;;5.43;2.83;;;9.80;99.90;;;;;;5075287;28;20383;-60
2022/12/20 02:27:08;;;;;;;4.85;2.95;;;9.90;99.90;;;;;;5077379;28;20503;-61
2022/12/20 02:30:20;;;;;;;4.72;3.20;;;9.90;99.90;;;;;;5085122;28;20055;-60
2022/12/20 02:32:57;;;;;;;4.18;2.78;;;9.90;99.90;;;;;;4999687;28;20536;-61
2022/12/20 02:35:27;;;;;;;5.93;2.65;;;9.90;99.90;;;;;;5071035;28;20064;-60
2022/12/20 02:37:57;;;;;;;5.82;2.83;;;10.00;99.90;;;;;;5095379;28;20052;-61
2022/12/20 02:40:27;;;;;;;6.68;2.97;;;10.00;99.90;;;;;;5080753;28;20055;-62
2022/12/20 02:43:01;;;;;;;6.07;3.13;;;9.90;99.90;;;;;;5085529;28;20528;-59
2022/12/20 02:45:32;;;;;;;;;;;10.00;99.90;;;;;;5075464;28;20032;-59
2022/12/20 02:48:03;;;;;;;4.15;2.95;;;10.00;99.90;;;;;;5074880;28;19982;-61
2022/12/20 02:50:37;;;;;;;4.97;3.10;;;9.90;99.90;;;;;;5074951;28;20481;-61
2022/12/20 02:53:04;;;;;;;;;;;10.00;99.90;;;;;;5075522;28;20048;-61
2022/12/20 02:55:56;;;;;;;5.38;3.20;;;10.00;99.90;;;;;;5074722;28;20006;-59
2022/12/20 02:58:37;;;;;;;4.85;3.13;;;10.00;99.90;;;;;;5074817;28;20029;-60
2022/12/20 03:01:07;;;;;;;5.97;3.20;;;10.00;99.90;;;;;;5057483;28;20393;-60
2022/12/20 03:03:34;;;;;;;7.75;3.53;;;10.00;99.90;;;;;;5074065;28;20460;-61
2022/12/20 03:06:00;;;;;;;6.78;3.38;;;9.90;99.90;;;;;;5075271;28;20041;-59
2022/12/20 03:08:26;;;;;;;5.10;3.38;;;9.90;99.90;;;;;;5057299;28;20032;-60
2022/12/20 03:10:53;;;;;;;5.10;3.47;;;9.90;99.90;;;;;;5057168;28;20044;-63
2022/12/20 03:13:21;;;;;;;6.10;3.50;;;9.90;99.90;;;;;;5057032;28;20044;-61
2022/12/20 03:15:46;;;;;;;8.35;3.55;;;9.90;99.90;;;;;;5056526;28;20473;-60
2022/12/20 03:18:12;;;;;;;5.80;3.78;;;9.90;99.90;;;;;;5073122;28;20068;-59
2022/12/20 03:20:38;;;;;;;6.25;3.70;;;9.90;99.90;;;;;;5068485;28;20044;-61
2022/12/20 03:23:03;;;;;;;6.00;3.70;;;9.80;99.90;;;;;;5087947;28;20037;-60
2022/12/20 03:25:29;;;;;;;12.00;3.85;;;9.80;99.90;;;;;;5074469;28;20067;-64
2022/12/20 03:27:55;;;;;;;6.05;3.90;;;9.90;99.90;;;;;;5069268;28;20056;-63
2022/12/20 03:30:20;;;;;;;6.57;4.00;;;9.80;99.90;;;;;;5073743;28;20445;-63
2022/12/20 03:32:46;;;;;;;5.88;3.60;;;9.80;99.90;;;;;;5073951;28;20101;-61
2022/12/20 03:35:11;;;;;;;7.20;3.95;;;9.80;99.90;;;;;;5073340;28;20076;-59
2022/12/20 03:37:37;;;;;;;6.07;3.63;;;9.80;99.90;;;;;;5055939;28;20058;-59
2022/12/20 03:40:04;;;;;;;6.35;3.78;;;9.80;99.90;;;;;;5043416;28;20056;-59
2022/12/20 03:42:30;;;;;;;5.72;3.60;;;9.80;99.90;;;;;;5073807;28;20466;-61
2022/12/20 03:44:55;;;;;;;7.82;3.90;;;9.70;99.90;;;;;;5056327;28;20376;-62
2022/12/20 03:47:21;;;;;;;6.35;3.70;;;9.80;99.90;;;;;;5072787;28;20043;-63
2022/12/20 03:49:47;;;;;;;7.97;4.10;;;9.70;99.90;;;;;;5039072;28;20043;-61
2022/12/20 03:52:14;;;;;;;6.80;4.07;;;9.70;99.90;;;;;;5056427;28;20444;-60
2022/12/20 03:54:40;;;;;;;6.43;3.85;;;9.80;99.90;;;;;;5056227;28;20053;-61
2022/12/20 03:57:05;;;;;;;6.57;3.90;;;9.80;99.90;;;;;;5055939;28;20048;-63
2022/12/20 03:59:32;;;;;;;7.38;4.45;;;9.70;99.90;;;;;;5055249;28;20095;-63
2022/12/20 04:01:57;;;;;;;6.70;4.00;;;9.80;99.90;;;;;;5055969;28;20051;-63
2022/12/20 04:04:23;;;;;;;5.90;4.43;;;9.60;99.90;;;;;;5055896;28;20048;-62
2022/12/20 04:06:48;;;;;;;8.05;4.60;;;9.70;99.90;;;;;;5073970;28;20036;-61
2022/12/20 04:09:14;;;;;;;7.78;4.22;;;9.70;99.90;;;;;;5071964;28;20109;-61
2022/12/20 04:11:40;;;;;;;6.30;3.92;;;9.70;99.90;;;;;;5055811;28;20028;-61
2022/12/20 04:14:06;;;;;;;6.78;4.15;;;9.70;99.90;;;;;;5056037;28;20105;-61
2022/12/20 04:16:32;;;;;;;6.68;4.30;;;9.70;99.90;;;;;;5038790;28;20345;-64
2022/12/20 04:18:58;;;;;;;6.30;4.15;;;9.60;99.90;;;;;;5072838;28;20127;-60
2022/12/20 04:21:29;;;;;;;6.32;4.45;;;9.70;99.90;;;;;;5055457;28;20032;-62
2022/12/20 04:23:55;;;;;;;6.80;4.28;;;9.70;99.90;;;;;;5073393;28;20111;-64
2022/12/20 04:26:21;;;;;;;6.15;4.13;;;9.60;99.90;;;;;;5055760;28;20064;-61
2022/12/20 04:28:46;;;;;;;6.53;4.10;;;9.70;99.90;;;;;;5073210;28;20098;-62
2022/12/20 04:31:12;;;;;;;6.72;4.05;;;9.70;99.90;;;;;;5073253;28;20033;-63
2022/12/20 04:33:38;;;;;;;5.68;4.15;;;9.80;99.90;;;;;;5073196;28;20479;-63
2022/12/20 04:36:04;;;;;;;6.80;4.70;;;9.80;99.90;;;;;;5073421;28;20435;-63
2022/12/20 04:38:29;;;;;;;6.57;4.25;;;9.70;99.90;;;;;;5072961;28;20039;-59
2022/12/20 04:40:55;;;;;;;7.28;4.28;;;9.80;99.90;;;;;;5073241;28;20040;-61
2022/12/20 04:43:22;;;;;;;7.43;4.15;;;9.80;99.90;;;;;;5072842;28;20036;-60
2022/12/20 04:45:51;;;;;;;8.13;4.22;;;9.80;99.90;;;;;;5072627;28;20044;-63
2022/12/20 04:48:16;;;;;;;5.30;3.80;;;9.90;99.90;;;;;;5072676;28;20051;-61
2022/12/20 04:50:42;;;;;;;5.68;3.75;;;9.90;99.90;;;;;;5072980;28;20048;-61
2022/12/20 04:55:54;;;;;;;7.25;4.25;;;9.90;99.90;;;;;;5073464;28;20062;-66
2022/12/20 04:58:19;;;;;;;7.38;4.40;;;9.90;99.90;;;;;;5073743;28;20037;-61
2022/12/20 05:00:45;;;;;;;6.40;3.90;;;9.90;99.90;;;;;;5072160;28;20040;-61
2022/12/20 05:03:11;;;;;;;5.57;3.50;;;10.00;99.90;;;;;;5072225;28;20029;-61
2022/12/20 05:05:36;;;;;;;5.35;3.72;;;10.10;99.90;;;;;;5072776;28;20419;-59
2022/12/20 05:08:02;;;;;;;6.88;3.72;;;10.20;99.90;;;;;;5089170;28;20105;-60
2022/12/20 05:10:28;;;;;;;5.30;3.40;;;10.00;99.90;;;;;;5086355;28;20113;-61
2022/12/20 05:12:53;;;;;;;6.80;3.58;;;10.00;99.90;;;;;;5078800;28;20142;-63
2022/12/20 05:15:19;;;;;;;4.15;3.28;;;10.10;99.90;;;;;;5081288;28;20078;-61
2022/12/20 05:17:44;;;;;;;6.80;4.10;;;10.00;99.90;;;;;;5086146;28;20040;-63
2022/12/20 05:20:11;;;;;;;7.10;3.72;;;10.10;99.90;;;;;;5054058;28;20048;-61
2022/12/20 05:28:05;;;;;;;5.97;3.35;;;10.10;99.90;;;;;;5059715;28;20402;-63
2022/12/20 05:30:30;;;;;;;4.85;3.53;;;10.10;99.90;;;;;;5071614;28;20460;-62
2022/12/20 05:32:56;;;;;;;5.97;3.80;;;10.10;99.90;;;;;;5072297;28;20102;-62
2022/12/20 05:35:21;;;;;;;6.53;3.20;;;10.10;99.90;;;;;;5072427;28;20051;-62
2022/12/20 05:37:47;;;;;;;7.40;3.47;;;10.00;99.90;;;;;;5079883;28;20054;-60
2022/12/20 05:40:13;;;;;;;7.97;3.95;;;10.00;99.90;;;;;;5078384;28;20048;-59
2022/12/20 05:42:39;;;;;;;6.70;3.85;;;9.90;99.90;;;;;;5087469;28;20111;-60
2022/12/20 05:45:05;;;;;;;4.85;3.22;;;10.00;99.90;;;;;;5089731;28;20097;-62
2022/12/20 05:47:32;;;;;;;6.13;3.78;;;10.00;99.90;;;;;;5089186;28;20040;-63
2022/12/20 05:49:59;;;;;;;6.82;3.80;;;10.10;99.90;;;;;;5065476;28;20051;-63
2022/12/20 05:52:25;;;;;;;6.38;3.95;;;10.10;99.90;;;;;;5090974;28;20055;-67
2022/12/20 05:54:50;;;;;;;5.32;3.53;;;10.10;99.90;;;;;;5089834;28;20036;-63
2022/12/20 05:57:16;;;;;;;5.10;3.85;;;10.10;99.90;;;;;;5068652;28;20440;-63
2022/12/20 05:59:42;;;;;;;5.80;3.35;;;10.10;99.90;;;;;;5085758;28;20082;-61
2022/12/20 06:02:09;;;;;;;5.47;4.00;;;10.10;99.90;;;;;;5074513;28;20398;-62
2022/12/20 06:04:35;;;;;;;5.85;3.60;;;10.10;99.90;;;;;;5073013;28;20048;-62
2022/12/20 06:07:00;;;;;;;7.70;4.18;;;10.10;99.90;;;;;;5091595;28;20064;-63
2022/12/20 06:09:26;;;;;;;6.50;4.10;;;10.10;99.90;;;;;;5086742;28;20098;-64
2022/12/20 06:11:52;;;;;;;6.32;4.10;;;10.20;99.90;;;;;;5058190;28;20047;-61
2022/12/20 06:14:17;;;;;;;5.57;3.97;;;10.10;99.90;;;;;;5076481;28;20094;-62
2022/12/20 06:16:43;;;;;;;7.13;3.72;;;10.10;99.90;;;;;;5081869;28;20040;-60
2022/12/20 06:19:08;;;;;;;7.47;4.20;;;10.20;99.90;;;;;;5072961;28;20036;-63
2022/12/20 06:21:34;;;;;;;6.57;4.28;;;10.10;99.90;;;;;;5095181;28;20125;-61
2022/12/20 06:24:00;;;;;;;7.60;5.10;;;10.10;99.90;;;;;;5092360;28;20040;-59
2022/12/20 06:26:26;;;;;;;8.05;4.15;;;10.10;99.90;;;;;;5093857;28;20056;-65
2022/12/20 06:28:53;;;;;;;7.55;5.00;;;10.00;99.90;;;;;;5090767;28;20040;-63
2022/12/20 06:31:19;;;;;;;7.00;4.75;;;9.90;99.90;;;;;;5074795;28;20035;-62
2022/12/20 06:33:45;;;;;;;6.57;4.65;;;9.90;99.90;;;;;;5062191;28;20055;-63
2022/12/20 06:36:10;;;;;;;7.35;4.85;;;10.00;99.90;;;;;;5089204;28;20074;-62
2022/12/20 06:38:36;;;;;;;5.85;4.35;;;9.90;99.90;;;;;;5079312;28;20068;-63
2022/12/20 06:41:02;;;;;;;6.95;4.68;;;10.00;99.90;;;;;;5087917;28;20040;-62
2022/12/20 06:43:27;;;;;;;7.95;5.30;;;10.00;99.90;;;;;;5078594;28;20043;-62
2022/12/20 06:45:53;;;;;;;6.82;4.90;;;9.90;99.90;;;;;;5068850;28;20032;-63
2022/12/20 06:48:20;;;;;;;9.43;4.93;;;10.00;99.90;;;;;;5088612;28;20115;-60
2022/12/20 06:50:50;;;;;;;8.18;5.10;;;9.90;99.90;;;;;;5060420;28;20074;-59
2022/12/20 06:53:15;;;;;;;7.05;5.07;;;10.10;99.90;;;;;;5090311;28;20063;-61
2022/12/20 06:55:41;;;;;;;9.15;6.00;;;10.00;99.90;;;;;;5066772;28;20032;-62
2022/12/20 06:58:06;;;;;;;7.97;5.47;;;9.90;99.90;;;;;;5072613;28;20329;-63
2022/12/20 07:00:32;;;;;;;7.13;5.05;;;10.00;99.90;;;;;;5076882;28;20075;-61
2022/12/20 07:02:58;;;;;;;7.00;5.35;;;9.90;99.90;;;;;;5083677;28;20426;-62
2022/12/20 07:05:24;;;;;;;7.55;5.25;;;10.00;99.90;;;;;;5074094;28;20056;-63
2022/12/20 07:07:49;;;;;;;7.55;5.60;;;10.00;99.90;;;;;;5078189;28;20047;-63
2022/12/20 07:10:15;;;;;;;7.90;5.30;;;10.00;99.90;;;;;;5054561;28;20051;-67
2022/12/20 07:12:41;;;;;;;6.75;4.90;;;10.10;99.90;;;;;;5039323;28;20063;-63
2022/12/20 07:15:07;;;;;;;7.97;5.38;;;10.10;99.90;;;;;;5056959;28;20059;-59
2022/12/20 07:17:33;;;;;;;8.40;5.68;;;10.10;99.90;;;;;;5060884;28;20051;-61
2022/12/20 07:19:59;;;;;;;8.95;5.20;;;10.10;99.90;;;;;;5063288;28;20112;-60
2022/12/20 07:22:25;;;;;;;5.78;4.47;;;10.00;99.90;;;;;;5058407;28;20088;-61
2022/12/20 07:24:50;;;;;;;9.77;5.90;;;10.10;99.90;;;;;;5074473;28;20108;-60
2022/12/20 07:27:16;;;;;;;7.85;5.32;;;10.10;99.90;;;;;;5055951;28;20185;-59
2022/12/20 07:29:42;;;;;;;8.10;5.53;;;10.20;99.90;;;;;;5066444;28;20071;-61
2022/12/20 07:32:07;;;;;;;8.25;5.40;;;10.10;99.90;;;;;;5050323;28;20176;-59
2022/12/20 07:34:35;;;;;;;7.80;5.30;;;10.20;99.90;;;;;;5056159;28;20040;-62
2022/12/20 07:37:00;;;;;;;7.32;5.30;;;10.10;99.90;;;;;;5056239;28;20245;-60
2022/12/20 07:39:26;;;;;;;6.35;4.78;;;10.00;99.90;;;;;;5072952;28;20123;-62
2022/12/20 07:41:55;;;;;;;8.77;4.93;;;10.10;99.90;;;;;;5069260;28;20039;-60
2022/12/20 07:44:21;;;;;;;6.65;5.03;;;10.10;99.90;;;;;;5056173;28;20093;-60
2022/12/20 07:46:47;;;;;;;7.90;4.97;;;10.00;99.90;;;;;;5055896;28;20059;-60
2022/12/20 07:49:13;;;;;;;6.63;4.60;;;10.00;99.90;;;;;;5055388;28;20516;-59
2022/12/20 07:51:52;;;;;;;7.13;4.63;;;10.00;99.90;;;;;;5055904;28;20048;-60
2022/12/20 07:54:23;;;;;;;5.93;4.30;;;10.10;99.90;;;;;;5055972;28;20051;-61
2022/12/20 07:56:52;;;;;;;7.50;4.07;;;10.10;99.90;;;;;;5059944;28;20062;-62
2022/12/20 07:59:22;;;;;;;7.90;4.20;;;10.10;99.90;;;;;;5081744;28;20072;-60
2022/12/20 08:01:48;;;;;;;6.82;4.00;;;10.20;99.90;;;;;;5060584;28;20064;-61
2022/12/20 08:04:18;;;;;;;9.25;4.90;;;10.10;99.90;;;;;;5080723;28;20684;-63
2022/12/20 08:06:43;;;;;;;7.53;3.80;;;10.10;99.90;;;;;;5086712;28;20125;-61
2022/12/20 08:09:14;;;;;;;6.15;3.88;;;10.10;99.90;;;;;;5072547;28;20461;-63
2022/12/20 08:11:43;;;;;;;5.75;3.88;;;10.10;99.90;;;;;;5073722;28;20086;-62
2022/12/20 08:14:10;;;;;;;6.82;3.88;;;10.20;99.90;;;;;;5038884;28;20053;-63
2022/12/20 08:16:35;;;;;;;6.97;4.25;;;10.30;99.90;;;;;;5055333;28;20068;-60
2022/12/20 08:19:01;;;;;;;5.53;4.00;;;10.20;99.90;;;;;;5054894;28;20432;-61
2022/12/20 08:21:27;;;;;;;5.50;3.80;;;10.10;99.90;;;;;;5078713;28;20039;-61
2022/12/20 08:23:53;;;;;;;5.70;3.90;;;10.20;99.90;;;;;;5062597;28;20055;-61
2022/12/20 08:26:19;;;;;;;6.57;3.72;;;10.20;99.90;;;;;;5074662;28;20028;-63
2022/12/20 08:28:45;;;;;;;5.80;3.85;;;10.30;99.90;;;;;;5093026;28;20040;-62
2022/12/20 08:31:11;;;;;;;6.43;4.13;;;10.40;99.90;;;;;;5079158;28;20050;-61
2022/12/20 08:33:38;;;;;;;7.30;4.13;;;10.40;99.90;;;;;;5092770;28;20040;-61
2022/12/20 08:36:07;;;;;;;5.88;3.28;;;10.40;99.90;;;;;;5086500;28;20048;-61
2022/12/20 08:38:33;;;;;;;7.22;3.80;;;10.40;99.90;;;;;;5054937;28;20135;-62
2022/12/20 08:41:03;;;;;;;4.72;3.35;;;10.40;99.90;;;;;;5080017;28;20103;-62
2022/12/20 08:43:30;;;;;;;5.15;3.47;;;10.50;99.90;;;;;;5079211;28;20124;-61
2022/12/20 08:45:55;;;;;;;7.53;3.65;;;10.50;99.90;;;;;;5092514;28;20050;-63
2022/12/20 08:48:21;;;;;;;5.70;3.60;;;10.50;99.90;;;;;;5090696;28;20036;-62
2022/12/20 08:50:52;;;;;;;12.35;9.30;;;10.60;99.90;;;;;;5075867;28;20450;-59
2022/12/20 08:53:18;;;;;;;6.72;4.32;;;10.60;99.90;;;;;;5078133;28;20093;-60
2022/12/20 08:55:43;;;;;;;5.40;3.35;;;10.60;99.90;;;;;;5079991;28;20457;-61
2022/12/20 08:58:09;;;;;;;5.00;3.25;;;10.60;99.90;;;;;;5077644;28;20174;-63
2022/12/20 09:00:35;;;;;;;7.50;3.80;;;10.60;99.90;;;;;;5084560;28;20101;-61
2022/12/20 09:03:01;;;;;;;7.60;3.55;;;10.60;99.90;;;;;;5077902;28;20833;-63
2022/12/20 09:05:26;;;;;;;6.50;3.47;;;10.60;99.90;;;;;;5085114;28;20075;-62
2022/12/20 09:07:52;;;;;;;5.00;3.35;;;10.60;99.90;;;;;;5055652;28;20356;-61
2022/12/20 09:10:18;;;;;;;5.53;3.65;;;10.50;99.90;;;;;;5079755;28;20368;-61
2022/12/20 09:12:44;;;;;;;7.82;4.22;;;10.60;99.90;;;;;;5079324;28;20092;-62
2022/12/20 09:15:10;;;;;;;5.95;3.47;;;10.60;99.90;;;;;;5086064;28;20122;-62
2022/12/20 09:17:36;;;;;;;7.05;3.58;;;10.50;99.90;;;;;;5085522;28;20418;-60
2022/12/20 09:20:02;;;;;;;6.38;3.63;;;10.60;99.90;;;;;;5054481;28;20074;-61
2022/12/20 09:22:28;;;;;;;7.60;4.50;;;10.50;99.90;;;;;;5054913;28;20036;-61
2022/12/20 09:24:54;;;;;;;6.18;3.42;;;10.50;99.90;;;;;;5072971;28;20098;-65
2022/12/20 09:27:19;;;;;;;6.20;4.13;;;10.50;99.90;;;;;;5071316;28;20053;-61
2022/12/20 09:29:45;;;;;;;9.15;4.53;;;10.50;99.90;;;;;;5072697;28;20086;-62
2022/12/20 09:32:11;;;;;;;9.23;7.15;;;10.50;99.90;;;;;;5073548;28;20397;-61
2022/12/20 09:34:38;;;;;;;5.78;3.85;;;10.40;99.90;;;;;;5077317;28;20040;-62
2022/12/20 09:37:03;;;;;;;7.45;4.90;;;10.40;99.90;;;;;;5077119;28;20044;-61
2022/12/20 09:39:29;;;;;;;10.32;7.07;;;10.50;99.90;;;;;;5058141;28;20044;-60
2022/12/20 09:41:56;;;;;;;6.38;4.53;;;10.40;99.90;;;;;;5076844;28;20036;-63
2022/12/20 09:44:27;;;;;;;8.57;6.28;;;10.50;99.90;;;;;;5060049;28;20036;-61
2022/12/20 09:47:06;;;;;;;7.00;4.50;;;10.50;99.90;;;;;;5077853;28;20064;-63
2022/12/20 09:49:35;;;;;;;8.63;4.75;;;10.40;99.90;;;;;;5076148;28;20334;-63
2022/12/20 09:52:10;;;;;;;6.75;4.35;;;10.50;99.90;;;;;;5059728;28;20169;-60
2022/12/20 09:54:57;;;;;;;10.75;6.30;;;10.50;99.90;;;;;;5076659;28;20055;-65
2022/12/20 09:57:31;;;;;;;9.63;4.75;;;10.40;99.90;;;;;;5076994;28;20033;-60
2022/12/20 09:59:57;;;;;;;10.55;5.50;;;10.50;99.90;;;;;;5076093;28;20036;-60
2022/12/20 10:02:24;;;;;;;6.90;3.97;;;10.50;99.90;;;;;;5058761;28;20044;-60
2022/12/20 10:04:51;;;;;;;6.55;3.95;;;10.40;99.90;;;;;;5076637;28;20032;-60
2022/12/20 10:07:53;;;;;;;9.88;6.63;;;10.40;99.90;;;;;;5076704;28;20044;-60
2022/12/20 10:10:40;;;;;;;7.10;4.30;;;10.50;99.90;;;;;;5076052;28;20131;-62
2022/12/20 10:13:15;;;;;;;6.28;3.45;;;10.50;99.90;;;;;;5075402;28;20056;-60
2022/12/20 10:16:14;;;;;;;5.72;3.28;;;10.50;99.90;;;;;;5057843;28;20098;-61
2022/12/20 10:18:58;;;;;;;6.60;4.72;;;10.40;99.90;;;;;;5058623;28;20488;-60
2022/12/20 10:21:36;;;;;;;;;;;10.50;99.90;;;;;;5074030;28;20499;-64
2022/12/20 10:24:10;;;;;;;8.35;4.18;;;10.40;99.90;;;;;;5076121;28;19973;-60
2022/12/20 10:26:36;;;;;;;6.40;4.43;;;10.30;99.90;;;;;;5075265;28;20037;-58
2022/12/20 10:29:01;;;;;;;8.43;4.82;;;10.30;99.90;;;;;;5075274;28;20346;-59
2022/12/20 10:31:27;;;;;;;7.30;4.10;;;10.40;99.90;;;;;;5076161;28;20040;-59
2022/12/20 10:33:53;;;;;;;8.55;3.85;;;10.40;99.90;;;;;;5076359;28;20086;-60
2022/12/20 10:36:28;;;;;;;9.93;5.45;;;10.40;99.90;;;;;;5075508;28;20037;-59
2022/12/20 10:38:59;;;;;;;7.88;4.00;;;10.40;99.90;;;;;;5074618;28;20033;-63
2022/12/20 10:41:27;;;;;;;8.50;5.22;;;10.40;99.90;;;;;;5075918;28;20068;-63
2022/12/20 10:44:14;;;;;;;12.10;10.80;;;10.40;99.90;;;;;;5074060;28;20112;-61
2022/12/20 10:46:46;;;;;;;6.80;4.00;;;10.40;99.90;;;;;;5076396;28;20076;-60
2022/12/20 10:49:36;;;;;;;7.25;3.53;;;10.50;99.90;;;;;;5074840;28;20036;-60
2022/12/20 10:52:12;;;;;;;9.60;3.90;;;10.40;99.90;;;;;;5074848;28;20078;-58
2022/12/20 10:54:38;;;;;;;5.75;3.70;;;10.40;99.90;;;;;;5057161;28;20519;-58
2022/12/20 10:57:20;;;;;;;7.97;3.50;;;10.50;99.90;;;;;;5074632;28;20044;-60
2022/12/20 10:59:49;;;;;;;6.20;3.63;;;10.50;99.90;;;;;;5081572;28;20063;-61
2022/12/20 11:02:32;;;;;;;6.00;3.50;;;10.40;99.90;;;;;;5056882;28;20049;-61
2022/12/20 11:05:19;;;;;;;6.78;3.30;;;10.50;99.90;;;;;;5061342;28;20506;-58
2022/12/20 11:07:57;;;;;;;7.35;4.05;;;10.50;99.90;;;;;;5093469;28;20048;-62
2022/12/20 11:10:26;;;;;;;7.20;3.67;;;10.50;99.90;;;;;;5073386;28;20044;-59
2022/12/20 11:12:57;;;;;;;6.40;3.90;;;10.50;99.90;;;;;;5075639;28;20055;-60
2022/12/20 11:15:26;;;;;;;6.03;3.20;;;10.50;99.90;;;;;;5076274;28;20105;-58
2022/12/20 11:18:00;;;;;;;6.32;3.47;;;10.50;99.90;;;;;;5076350;28;20353;-61
2022/12/20 11:20:41;;;;;;;6.13;3.60;;;10.60;99.90;;;;;;5056496;28;20165;-60
2022/12/20 11:23:30;;;;;;;4.28;2.90;;;10.60;99.90;;;;;;5076458;28;20123;-61
2022/12/20 11:26:08;;;;;;;4.35;2.72;;;10.60;99.90;;;;;;5072552;28;20551;-63
2022/12/20 11:28:39;;;;;;;3.55;2.88;;;10.60;99.90;;;;;;5073462;28;20052;-59
2022/12/20 11:31:47;;;;;;;5.63;3.17;;;10.60;99.90;;;;;;5079975;28;20501;-60
2022/12/20 11:34:42;;;;;;;4.93;3.20;;;10.70;99.90;;;;;;5038164;28;20056;-60
2022/12/20 11:37:23;;;;;;;5.78;3.30;;;10.60;99.90;;;;;;5069287;28;20055;-61
2022/12/20 11:40:15;;;;;;;20.77;18.98;;;10.70;99.90;;;;;;5058811;28;20136;-60
2022/12/20 11:43:06;;;;;;;26.92;24.23;;;10.60;99.90;;;;;;5069437;28;20359;-60
2022/12/20 11:45:40;;;;;;;13.63;11.93;;;10.60;99.90;;;;;;5058166;28;20082;-62
2022/12/20 11:48:16;;;;;;;;;;;10.60;99.90;;;;;;5085778;28;20042;-60
2022/12/20 11:51:03;;;;;;;7.57;4.38;;;10.60;99.90;;;;;;5077827;28;20367;-63
2022/12/20 11:53:37;;;;;;;7.45;4.10;;;10.70;99.90;;;;;;5086784;28;20180;-62
2022/12/20 11:56:15;;;;;;;5.10;3.80;;;10.60;99.90;;;;;;5073365;28;20037;-62
2022/12/20 11:59:13;;;;;;;5.43;3.20;;;10.60;99.90;;;;;;5078990;28;20456;-60
2022/12/20 12:02:00;;;;;;;8.15;3.15;;;10.60;99.90;;;;;;5069581;28;20114;-60
2022/12/20 12:04:32;;;;;;;5.15;3.20;;;10.70;99.90;;;;;;5073428;28;20052;-65
2022/12/20 12:07:12;;;;;;;5.18;3.40;;;10.60;99.90;;;;;;5073483;28;20060;-63
2022/12/20 12:10:06;;;;;;;5.47;3.35;;;10.70;99.90;;;;;;5055162;28;20045;-62
2022/12/20 12:12:43;;;;;;;5.20;3.10;;;10.70;99.90;;;;;;5072931;28;20048;-61
2022/12/20 12:15:15;;;;;;;5.65;3.75;;;10.60;99.90;;;;;;5073719;28;20042;-61
2022/12/20 12:17:49;;;;;;;7.55;3.70;;;10.60;99.90;;;;;;5051905;28;20050;-63
2022/12/20 12:20:30;;;;;;;;;;;10.70;99.90;;;;;;5073758;28;20049;-62
2022/12/20 12:23:20;;;;;;;5.95;3.35;;;10.70;99.90;;;;;;5055810;28;19960;-62
2022/12/20 12:25:45;;;;;;;6.10;3.45;;;10.70;99.90;;;;;;5069751;28;20093;-62
2022/12/20 12:28:13;;;;;;;6.50;3.33;;;10.70;99.90;;;;;;5083264;28;20408;-61
2022/12/20 12:30:44;;;;;;;5.00;3.20;;;10.70;99.90;;;;;;5055967;28;20578;-63
2022/12/20 12:33:23;;;;;;;5.55;3.30;;;10.80;99.90;;;;;;5047922;28;20083;-62
2022/12/20 12:36:19;;;;;;;6.72;3.40;;;10.80;99.90;;;;;;5092601;28;20532;-62
2022/12/20 12:39:21;;;;;;;5.80;3.30;;;10.70;99.90;;;;;;5091590;28;20036;-61
2022/12/20 12:42:26;;;;;;;6.57;3.33;;;10.80;99.90;;;;;;5078655;28;20040;-58
2022/12/20 12:45:06;;;;;;;4.90;3.45;;;10.70;99.90;;;;;;5064370;28;20076;-59
2022/12/20 12:47:36;;;;;;;5.57;3.47;;;10.80;99.90;;;;;;5042604;28;20047;-61
2022/12/20 12:50:07;;;;;;;5.80;3.95;;;10.70;99.90;;;;;;5055593;28;20052;-59
2022/12/20 12:52:42;;;;;;;6.95;4.20;;;10.70;99.90;;;;;;5065929;28;20365;-60
2022/12/20 12:55:53;;;;;;;6.13;3.85;;;10.80;99.90;;;;;;5057574;28;20101;-61
2022/12/20 12:58:22;;;;;;;6.50;4.25;;;10.70;99.90;;;;;;5056500;28;20114;-61
2022/12/20 13:00:48;;;;;;;5.53;3.97;;;10.70;99.90;;;;;;5075753;28;20048;-61
2022/12/20 13:03:15;;;;;;;6.30;4.25;;;10.70;99.90;;;;;;5087645;28;20044;-61
2022/12/20 13:05:41;;;;;;;7.15;4.32;;;10.80;99.90;;;;;;5081959;28;20103;-62
2022/12/20 13:08:17;;;;;;;7.22;4.30;;;10.80;99.90;;;;;;5086537;28;20460;-61
2022/12/20 13:10:43;;;;;;;5.82;4.47;;;10.70;99.90;;;;;;5060537;28;20158;-61
2022/12/20 13:13:19;;;;;;;7.53;4.32;;;10.70;99.90;;;;;;5058678;28;20122;-61